sensor_id;sensor_type;location;lat;lon;timestamp;temperature;humidity
431;DHT22;202;48.764;9.172;2022-08-01T00:40:49;24.00;33.70
431;DHT22;202;48.764;9.172;2022-08-01T00:57:54;24.00;34.50
431;DHT22;202;48.764;9.172;2022-08-01T01:09:56;24.00;34.80
431;DHT22;202;48.764;9.172;2022-08-01T01:39:43;23.40;37.30
431;DHT22;202;48.764;9.172;2022-08-01T01:42:44;23.40;37.40
431;DHT22;202;48.764;9.172;2022-08-01T01:45:25;23.40;37.60
431;DHT22;202;48.764;9.172;2022-08-01T01:47:59;23.40;37.30
431;DHT22;202;48.764;9.172;2022-08-01T01:50:31;23.40;38.00
431;DHT22;202;48.764;9.172;2022-08-01T01:53:03;23.30;37.90
431;DHT22;202;48.764;9.172;2022-08-01T01:55:37;23.30;38.10
431;DHT22;202;48.764;9.172;2022-08-01T01:58:07;23.40;38.00
431;DHT22;202;48.764;9.172;2022-08-01T02:00:42;23.40;38.50
431;DHT22;202;48.764;9.172;2022-08-01T02:03:13;23.20;38.70
431;DHT22;202;48.764;9.172;2022-08-01T02:05:42;23.20;39.20
431;DHT22;202;48.764;9.172;2022-08-01T02:08:14;23.20;39.30
431;DHT22;202;48.764;9.172;2022-08-01T02:10:45;23.30;39.50
431;DHT22;202;48.764;9.172;2022-08-01T02:13:52;23.20;39.30
431;DHT22;202;48.764;9.172;2022-08-01T02:19:54;23.30;39.60
431;DHT22;202;48.764;9.172;2022-08-01T02:22:34;23.30;39.70
431;DHT22;202;48.764;9.172;2022-08-01T02:25:23;23.30;39.80
431;DHT22;202;48.764;9.172;2022-08-01T02:28:17;23.20;39.90
431;DHT22;202;48.764;9.172;2022-08-01T02:30:56;23.10;40.00
431;DHT22;202;48.764;9.172;2022-08-01T02:33:37;23.00;40.30
431;DHT22;202;48.764;9.172;2022-08-01T02:36:12;23.00;40.30
431;DHT22;202;48.764;9.172;2022-08-01T02:38:48;23.00;40.00
431;DHT22;202;48.764;9.172;2022-08-01T02:41:26;22.90;40.50
431;DHT22;202;48.764;9.172;2022-08-01T02:44:23;22.90;40.80
431;DHT22;202;48.764;9.172;2022-08-01T02:46:59;22.80;41.40
431;DHT22;202;48.764;9.172;2022-08-01T02:49:31;22.80;41.50
431;DHT22;202;48.764;9.172;2022-08-01T02:52:00;22.90;41.70
431;DHT22;202;48.764;9.172;2022-08-01T02:54:31;22.80;42.60
431;DHT22;202;48.764;9.172;2022-08-01T02:57:00;22.80;42.30
431;DHT22;202;48.764;9.172;2022-08-01T02:59:34;22.80;42.60
431;DHT22;202;48.764;9.172;2022-08-01T03:02:04;22.80;42.50
431;DHT22;202;48.764;9.172;2022-08-01T03:04:34;22.80;42.70
431;DHT22;202;48.764;9.172;2022-08-01T03:07:04;22.70;43.30
431;DHT22;202;48.764;9.172;2022-08-01T03:09:38;22.70;43.40
431;DHT22;202;48.764;9.172;2022-08-01T03:12:13;22.60;43.70
431;DHT22;202;48.764;9.172;2022-08-01T03:14:48;22.70;44.10
431;DHT22;202;48.764;9.172;2022-08-01T03:17:21;22.60;44.00
431;DHT22;202;48.764;9.172;2022-08-01T03:19:53;22.60;43.80
431;DHT22;202;48.764;9.172;2022-08-01T03:22:23;22.70;43.90
431;DHT22;202;48.764;9.172;2022-08-01T03:24:52;22.60;44.40
431;DHT22;202;48.764;9.172;2022-08-01T03:27:21;22.70;44.20
431;DHT22;202;48.764;9.172;2022-08-01T03:29:51;22.60;45.00
431;DHT22;202;48.764;9.172;2022-08-01T03:32:19;22.60;45.00
431;DHT22;202;48.764;9.172;2022-08-01T03:34:49;22.60;45.00
431;DHT22;202;48.764;9.172;2022-08-01T03:37:36;22.60;45.00
431;DHT22;202;48.764;9.172;2022-08-01T03:44:17;22.60;45.00
431;DHT22;202;48.764;9.172;2022-08-01T03:57:46;22.50;44.90
431;DHT22;202;48.764;9.172;2022-08-01T04:00:26;22.40;44.80
431;DHT22;202;48.764;9.172;2022-08-01T04:02:58;22.50;44.90
431;DHT22;202;48.764;9.172;2022-08-01T04:05:38;22.50;44.90
431;DHT22;202;48.764;9.172;2022-08-01T04:08:10;22.40;45.70
431;DHT22;202;48.764;9.172;2022-08-01T04:10:48;22.40;45.90
431;DHT22;202;48.764;9.172;2022-08-01T04:13:20;22.40;46.00
431;DHT22;202;48.764;9.172;2022-08-01T04:15:55;22.30;46.30
431;DHT22;202;48.764;9.172;2022-08-01T04:18:24;22.30;46.30
431;DHT22;202;48.764;9.172;2022-08-01T04:21:14;22.30;46.60
431;DHT22;202;48.764;9.172;2022-08-01T04:27:32;22.30;46.60
431;DHT22;202;48.764;9.172;2022-08-01T04:30:31;22.50;46.60
431;DHT22;202;48.764;9.172;2022-08-01T04:33:04;22.60;46.40
431;DHT22;202;48.764;9.172;2022-08-01T04:35:32;22.60;46.30
431;DHT22;202;48.764;9.172;2022-08-01T04:38:04;22.80;46.00
431;DHT22;202;48.764;9.172;2022-08-01T04:40:35;22.80;45.90
431;DHT22;202;48.764;9.172;2022-08-01T04:43:04;22.80;45.90
431;DHT22;202;48.764;9.172;2022-08-01T04:45:32;22.80;46.00
431;DHT22;202;48.764;9.172;2022-08-01T04:48:01;22.80;46.10
431;DHT22;202;48.764;9.172;2022-08-01T04:50:35;22.70;46.50
431;DHT22;202;48.764;9.172;2022-08-01T04:53:04;22.70;46.90
431;DHT22;202;48.764;9.172;2022-08-01T04:55:38;22.70;47.00
431;DHT22;202;48.764;9.172;2022-08-01T04:58:09;22.70;47.30
431;DHT22;202;48.764;9.172;2022-08-01T05:00:45;22.70;47.50
431;DHT22;202;48.764;9.172;2022-08-01T05:03:24;22.70;47.60
431;DHT22;202;48.764;9.172;2022-08-01T05:06:13;22.60;47.70
431;DHT22;202;48.764;9.172;2022-08-01T05:08:46;22.70;47.90
431;DHT22;202;48.764;9.172;2022-08-01T05:11:29;22.70;47.70
431;DHT22;202;48.764;9.172;2022-08-01T05:14:30;22.80;47.50
431;DHT22;202;48.764;9.172;2022-08-01T05:17:29;22.90;47.10
431;DHT22;202;48.764;9.172;2022-08-01T05:20:11;23.00;46.90
431;DHT22;202;48.764;9.172;2022-08-01T05:23:00;23.20;46.70
431;DHT22;202;48.764;9.172;2022-08-01T05:25:27;23.30;46.70
431;DHT22;202;48.764;9.172;2022-08-01T05:27:57;23.30;46.60
431;DHT22;202;48.764;9.172;2022-08-01T05:30:33;23.50;45.90
431;DHT22;202;48.764;9.172;2022-08-01T05:33:02;23.50;45.80
431;DHT22;202;48.764;9.172;2022-08-01T05:35:30;23.50;46.30
431;DHT22;202;48.764;9.172;2022-08-01T05:38:01;23.60;45.90
431;DHT22;202;48.764;9.172;2022-08-01T05:40:44;23.60;45.90
431;DHT22;202;48.764;9.172;2022-08-01T05:43:11;23.60;45.90
431;DHT22;202;48.764;9.172;2022-08-01T05:45:49;23.70;46.00
431;DHT22;202;48.764;9.172;2022-08-01T05:48:33;23.70;46.00
431;DHT22;202;48.764;9.172;2022-08-01T05:51:20;23.70;46.00
431;DHT22;202;48.764;9.172;2022-08-01T05:56:58;23.90;46.20
431;DHT22;202;48.764;9.172;2022-08-01T05:59:32;24.00;45.40
431;DHT22;202;48.764;9.172;2022-08-01T06:02:13;24.00;45.40
431;DHT22;202;48.764;9.172;2022-08-01T06:04:53;24.00;45.40
431;DHT22;202;48.764;9.172;2022-08-01T06:08:46;24.00;45.30
431;DHT22;202;48.764;9.172;2022-08-01T06:10:27;23.90;45.70
431;DHT22;202;48.764;9.172;2022-08-01T06:12:54;24.00;46.30
431;DHT22;202;48.764;9.172;2022-08-01T06:15:32;24.00;46.20
431;DHT22;202;48.764;9.172;2022-08-01T06:18:24;24.00;45.90
431;DHT22;202;48.764;9.172;2022-08-01T06:21:00;24.20;46.40
431;DHT22;202;48.764;9.172;2022-08-01T06:23:40;24.60;45.90
431;DHT22;202;48.764;9.172;2022-08-01T06:26:38;25.50;43.20
431;DHT22;202;48.764;9.172;2022-08-01T06:29:08;26.00;40.60
431;DHT22;202;48.764;9.172;2022-08-01T06:31:44;26.20;40.00
431;DHT22;202;48.764;9.172;2022-08-01T06:34:26;26.20;39.90
431;DHT22;202;48.764;9.172;2022-08-01T06:37:00;26.20;39.80
431;DHT22;202;48.764;9.172;2022-08-01T06:39:27;26.00;40.00
431;DHT22;202;48.764;9.172;2022-08-01T06:42:11;25.80;40.30
431;DHT22;202;48.764;9.172;2022-08-01T06:45:09;25.60;41.10
431;DHT22;202;48.764;9.172;2022-08-01T06:48:07;25.40;41.80
431;DHT22;202;48.764;9.172;2022-08-01T06:50:53;25.20;42.50
431;DHT22;202;48.764;9.172;2022-08-01T06:53:54;25.10;42.80
431;DHT22;202;48.764;9.172;2022-08-01T06:56:55;25.00;43.20
431;DHT22;202;48.764;9.172;2022-08-01T06:59:34;25.00;43.30
431;DHT22;202;48.764;9.172;2022-08-01T07:02:09;25.00;43.10
431;DHT22;202;48.764;9.172;2022-08-01T07:04:40;25.10;43.10
431;DHT22;202;48.764;9.172;2022-08-01T07:07:21;25.40;42.50
431;DHT22;202;48.764;9.172;2022-08-01T07:09:49;25.70;41.70
431;DHT22;202;48.764;9.172;2022-08-01T07:12:41;25.90;41.70
431;DHT22;202;48.764;9.172;2022-08-01T07:15:11;26.30;40.50
431;DHT22;202;48.764;9.172;2022-08-01T07:17:44;26.40;39.30
431;DHT22;202;48.764;9.172;2022-08-01T07:20:15;26.30;39.30
431;DHT22;202;48.764;9.172;2022-08-01T07:23:06;26.60;38.80
431;DHT22;202;48.764;9.172;2022-08-01T07:25:39;27.00;38.20
431;DHT22;202;48.764;9.172;2022-08-01T07:28:36;27.80;37.50
431;DHT22;202;48.764;9.172;2022-08-01T07:31:34;28.30;35.00
431;DHT22;202;48.764;9.172;2022-08-01T07:34:26;28.50;33.90
431;DHT22;202;48.764;9.172;2022-08-01T07:36:56;28.40;34.50
431;DHT22;202;48.764;9.172;2022-08-01T08:26:23;29.10;31.90
431;DHT22;202;48.764;9.172;2022-08-01T08:35:30;31.70;28.20
431;DHT22;202;48.764;9.172;2022-08-01T08:38:07;32.70;26.50
431;DHT22;202;48.764;9.172;2022-08-01T08:44:42;32.00;26.70
431;DHT22;202;48.764;9.172;2022-08-01T08:47:33;31.00;28.00
431;DHT22;202;48.764;9.172;2022-08-01T08:50:30;30.80;28.60
431;DHT22;202;48.764;9.172;2022-08-01T08:53:04;30.70;28.60
431;DHT22;202;48.764;9.172;2022-08-01T08:56:01;31.10;29.10
431;DHT22;202;48.764;9.172;2022-08-01T08:59:00;30.80;29.10
431;DHT22;202;48.764;9.172;2022-08-01T09:02:03;30.50;29.40
431;DHT22;202;48.764;9.172;2022-08-01T09:04:55;30.00;29.90
431;DHT22;202;48.764;9.172;2022-08-01T09:07:38;30.10;29.90
431;DHT22;202;48.764;9.172;2022-08-01T09:10:27;30.10;30.00
431;DHT22;202;48.764;9.172;2022-08-01T09:13:15;30.10;29.90
431;DHT22;202;48.764;9.172;2022-08-01T09:15:58;29.90;29.80
431;DHT22;202;48.764;9.172;2022-08-01T09:19:15;29.80;30.00
431;DHT22;202;48.764;9.172;2022-08-01T09:25:03;29.10;31.20
431;DHT22;202;48.764;9.172;2022-08-01T09:31:27;29.50;30.70
431;DHT22;202;48.764;9.172;2022-08-01T09:34:29;29.40;30.60
431;DHT22;202;48.764;9.172;2022-08-01T09:37:44;29.30;31.00
431;DHT22;202;48.764;9.172;2022-08-01T09:40:27;29.40;30.80
431;DHT22;202;48.764;9.172;2022-08-01T09:43:31;29.40;30.90
431;DHT22;202;48.764;9.172;2022-08-01T09:56:35;30.40;29.80
431;DHT22;202;48.764;9.172;2022-08-01T09:59:54;30.20;30.00
431;DHT22;202;48.764;9.172;2022-08-01T10:03:49;29.80;29.80
431;DHT22;202;48.764;9.172;2022-08-01T10:09:29;29.10;31.70
431;DHT22;202;48.764;9.172;2022-08-01T10:12:26;29.00;32.10
431;DHT22;202;48.764;9.172;2022-08-01T10:19:39;28.90;31.90
431;DHT22;202;48.764;9.172;2022-08-01T10:23:05;28.90;32.20
431;DHT22;202;48.764;9.172;2022-08-01T10:26:51;29.20;31.30
431;DHT22;202;48.764;9.172;2022-08-01T10:38:19;29.80;30.80
431;DHT22;202;48.764;9.172;2022-08-01T12:25:21;29.00;29.40
431;DHT22;202;48.764;9.172;2022-08-01T14:57:25;29.80;29.70
431;DHT22;202;48.764;9.172;2022-08-01T15:04:43;29.90;29.10
431;DHT22;202;48.764;9.172;2022-08-01T15:14:29;29.90;28.70
431;DHT22;202;48.764;9.172;2022-08-01T15:29:01;29.70;28.60
431;DHT22;202;48.764;9.172;2022-08-01T15:35:22;29.50;28.60
431;DHT22;202;48.764;9.172;2022-08-01T15:38:31;29.50;28.60
431;DHT22;202;48.764;9.172;2022-08-01T15:41:00;29.50;28.40
431;DHT22;202;48.764;9.172;2022-08-01T15:43:36;29.50;28.00
431;DHT22;202;48.764;9.172;2022-08-01T15:46:06;29.60;28.10
431;DHT22;202;48.764;9.172;2022-08-01T15:48:36;29.50;27.70
431;DHT22;202;48.764;9.172;2022-08-01T15:51:07;29.50;28.30
431;DHT22;202;48.764;9.172;2022-08-01T15:53:37;29.50;28.10
431;DHT22;202;48.764;9.172;2022-08-01T15:56:04;29.50;27.90
431;DHT22;202;48.764;9.172;2022-08-01T15:58:31;29.50;27.90
431;DHT22;202;48.764;9.172;2022-08-01T16:01:03;29.50;29.50
431;DHT22;202;48.764;9.172;2022-08-01T16:03:34;29.50;27.80
431;DHT22;202;48.764;9.172;2022-08-01T16:06:01;29.40;27.70
431;DHT22;202;48.764;9.172;2022-08-01T16:08:33;29.40;27.80
431;DHT22;202;48.764;9.172;2022-08-01T16:11:00;29.30;28.00
431;DHT22;202;48.764;9.172;2022-08-01T16:13:27;29.20;28.10
431;DHT22;202;48.764;9.172;2022-08-01T16:16:07;29.20;28.20
431;DHT22;202;48.764;9.172;2022-08-01T16:18:38;29.20;28.80
431;DHT22;202;48.764;9.172;2022-08-01T16:21:08;29.10;28.90
431;DHT22;202;48.764;9.172;2022-08-01T16:23:55;29.10;29.10
431;DHT22;202;48.764;9.172;2022-08-01T16:26:28;29.20;29.20
431;DHT22;202;48.764;9.172;2022-08-01T16:28:55;29.10;29.20
431;DHT22;202;48.764;9.172;2022-08-01T16:31:27;29.10;28.80
431;DHT22;202;48.764;9.172;2022-08-01T16:33:55;29.10;28.90
431;DHT22;202;48.764;9.172;2022-08-01T16:36:22;29.00;29.40
431;DHT22;202;48.764;9.172;2022-08-01T16:38:58;28.90;29.30
431;DHT22;202;48.764;9.172;2022-08-01T16:41:25;28.90;29.10
431;DHT22;202;48.764;9.172;2022-08-01T16:43:57;28.80;29.30
431;DHT22;202;48.764;9.172;2022-08-01T16:46:25;28.80;29.20
431;DHT22;202;48.764;9.172;2022-08-01T16:48:56;28.80;29.30
431;DHT22;202;48.764;9.172;2022-08-01T16:51:23;28.60;29.10
431;DHT22;202;48.764;9.172;2022-08-01T16:53:50;28.60;29.10
431;DHT22;202;48.764;9.172;2022-08-01T16:56:18;28.40;29.00
431;DHT22;202;48.764;9.172;2022-08-01T16:58:45;28.30;29.00
431;DHT22;202;48.764;9.172;2022-08-01T17:01:12;28.30;29.50
431;DHT22;202;48.764;9.172;2022-08-01T17:03:39;28.30;30.00
431;DHT22;202;48.764;9.172;2022-08-01T17:06:09;28.40;30.00
431;DHT22;202;48.764;9.172;2022-08-01T17:08:37;28.40;30.00
431;DHT22;202;48.764;9.172;2022-08-01T17:11:07;28.50;30.00
431;DHT22;202;48.764;9.172;2022-08-01T17:13:36;28.50;29.70
431;DHT22;202;48.764;9.172;2022-08-01T17:16:03;28.50;29.70
431;DHT22;202;48.764;9.172;2022-08-01T17:18:30;28.50;29.90
431;DHT22;202;48.764;9.172;2022-08-01T17:20:57;28.40;30.10
431;DHT22;202;48.764;9.172;2022-08-01T17:23:25;28.50;29.90
431;DHT22;202;48.764;9.172;2022-08-01T17:25:52;28.40;30.10
431;DHT22;202;48.764;9.172;2022-08-01T17:28:19;28.40;30.30
431;DHT22;202;48.764;9.172;2022-08-01T17:30:49;28.40;29.90
431;DHT22;202;48.764;9.172;2022-08-01T17:33:19;28.30;30.10
431;DHT22;202;48.764;9.172;2022-08-01T17:35:46;28.20;30.50
431;DHT22;202;48.764;9.172;2022-08-01T17:38:13;28.20;30.70
431;DHT22;202;48.764;9.172;2022-08-01T17:40:40;28.20;30.80
431;DHT22;202;48.764;9.172;2022-08-01T17:43:07;28.10;30.70
431;DHT22;202;48.764;9.172;2022-08-01T17:45:35;28.10;30.90
431;DHT22;202;48.764;9.172;2022-08-01T17:48:08;28.20;30.80
431;DHT22;202;48.764;9.172;2022-08-01T17:50:41;28.20;30.80
431;DHT22;202;48.764;9.172;2022-08-01T17:53:08;28.10;31.10
431;DHT22;202;48.764;9.172;2022-08-01T17:55:35;28.00;31.10
431;DHT22;202;48.764;9.172;2022-08-01T17:58:02;28.00;31.00
431;DHT22;202;48.764;9.172;2022-08-01T18:04:16;28.00;31.00
431;DHT22;202;48.764;9.172;2022-08-01T18:07:07;28.00;31.40
431;DHT22;202;48.764;9.172;2022-08-01T18:10:00;27.90;31.70
431;DHT22;202;48.764;9.172;2022-08-01T18:12:39;27.80;31.80
431;DHT22;202;48.764;9.172;2022-08-01T18:15:15;27.80;32.20
431;DHT22;202;48.764;9.172;2022-08-01T18:17:56;27.70;32.10
431;DHT22;202;48.764;9.172;2022-08-01T18:20:48;27.70;32.30
431;DHT22;202;48.764;9.172;2022-08-01T18:23:47;27.60;32.40
431;DHT22;202;48.764;9.172;2022-08-01T18:26:25;27.60;32.80
431;DHT22;202;48.764;9.172;2022-08-01T18:29:08;27.60;32.70
431;DHT22;202;48.764;9.172;2022-08-01T18:31:53;27.50;33.00
431;DHT22;202;48.764;9.172;2022-08-01T18:34:30;27.50;33.10
431;DHT22;202;48.764;9.172;2022-08-01T18:37:22;27.50;33.10
431;DHT22;202;48.764;9.172;2022-08-01T18:40:19;27.40;33.30
431;DHT22;202;48.764;9.172;2022-08-01T18:43:14;27.30;33.50
431;DHT22;202;48.764;9.172;2022-08-01T18:46:16;27.30;33.60
431;DHT22;202;48.764;9.172;2022-08-01T18:49:02;27.30;33.80
431;DHT22;202;48.764;9.172;2022-08-01T18:58:52;27.20;34.10
431;DHT22;202;48.764;9.172;2022-08-01T19:01:36;27.10;34.60
431;DHT22;202;48.764;9.172;2022-08-01T19:04:24;27.00;34.60
431;DHT22;202;48.764;9.172;2022-08-01T19:07:07;27.00;35.10
431;DHT22;202;48.764;9.172;2022-08-01T19:09:53;27.00;35.50
431;DHT22;202;48.764;9.172;2022-08-01T19:12:39;26.90;35.40
431;DHT22;202;48.764;9.172;2022-08-01T19:15:32;26.90;36.30
431;DHT22;202;48.764;9.172;2022-08-01T19:18:11;26.70;42.30
431;DHT22;202;48.764;9.172;2022-08-01T19:20:47;26.70;41.70
431;DHT22;202;48.764;9.172;2022-08-01T19:26:54;26.50;42.60
431;DHT22;202;48.764;9.172;2022-08-01T19:40:19;26.30;42.40
431;DHT22;202;48.764;9.172;2022-08-01T19:49:58;26.20;41.90
431;DHT22;202;48.764;9.172;2022-08-01T19:53:02;26.10;41.80
431;DHT22;202;48.764;9.172;2022-08-01T21:16:12;23.00;75.20
431;DHT22;202;48.764;9.172;2022-08-01T21:22:25;22.90;75.50
431;DHT22;202;48.764;9.172;2022-08-01T21:25:00;22.80;76.30
431;DHT22;202;48.764;9.172;2022-08-01T21:27:30;22.70;77.60
431;DHT22;202;48.764;9.172;2022-08-01T21:29:59;22.60;77.30
431;DHT22;202;48.764;9.172;2022-08-01T21:32:29;22.40;80.10
431;DHT22;202;48.764;9.172;2022-08-01T21:34:58;22.30;81.40
431;DHT22;202;48.764;9.172;2022-08-01T21:37:26;22.40;81.50
431;DHT22;202;48.764;9.172;2022-08-01T21:39:54;22.30;82.40
431;DHT22;202;48.764;9.172;2022-08-01T21:42:25;22.20;82.80
431;DHT22;202;48.764;9.172;2022-08-01T21:44:54;22.20;81.80
431;DHT22;202;48.764;9.172;2022-08-01T21:47:28;22.10;81.90
431;DHT22;202;48.764;9.172;2022-08-01T21:49:59;22.00;82.00
431;DHT22;202;48.764;9.172;2022-08-01T21:52:33;22.00;83.90
431;DHT22;202;48.764;9.172;2022-08-01T21:55:15;21.80;86.70
431;DHT22;202;48.764;9.172;2022-08-01T21:57:56;21.60;89.80
431;DHT22;202;48.764;9.172;2022-08-01T22:00:26;21.50;91.20
431;DHT22;202;48.764;9.172;2022-08-01T22:03:00;21.60;90.10
431;DHT22;202;48.764;9.172;2022-08-01T22:05:28;21.60;90.40
431;DHT22;202;48.764;9.172;2022-08-01T22:07:58;21.50;91.20
431;DHT22;202;48.764;9.172;2022-08-01T22:10:27;21.60;91.30
431;DHT22;202;48.764;9.172;2022-08-01T22:12:54;21.50;91.20
431;DHT22;202;48.764;9.172;2022-08-01T22:15:23;21.60;91.90
431;DHT22;202;48.764;9.172;2022-08-01T22:17:51;21.60;90.40
431;DHT22;202;48.764;9.172;2022-08-01T22:20:21;21.50;90.80
431;DHT22;202;48.764;9.172;2022-08-01T22:22:48;21.50;90.50
431;DHT22;202;48.764;9.172;2022-08-01T22:25:15;21.40;90.90
431;DHT22;202;48.764;9.172;2022-08-01T22:27:42;21.30;90.70
431;DHT22;202;48.764;9.172;2022-08-01T22:30:11;21.30;90.30
431;DHT22;202;48.764;9.172;2022-08-01T22:32:40;21.20;90.00
431;DHT22;202;48.764;9.172;2022-08-01T22:35:10;21.10;90.30
431;DHT22;202;48.764;9.172;2022-08-01T22:37:38;21.00;91.10
431;DHT22;202;48.764;9.172;2022-08-01T22:40:08;20.80;91.10
431;DHT22;202;48.764;9.172;2022-08-01T22:42:38;20.80;91.00
431;DHT22;202;48.764;9.172;2022-08-01T22:45:09;20.70;91.40
431;DHT22;202;48.764;9.172;2022-08-01T22:47:54;20.70;91.30
431;DHT22;202;48.764;9.172;2022-08-01T22:50:28;20.80;90.60
431;DHT22;202;48.764;9.172;2022-08-01T22:53:07;20.90;89.90
431;DHT22;202;48.764;9.172;2022-08-01T22:55:36;20.70;90.20
431;DHT22;202;48.764;9.172;2022-08-01T22:58:05;20.70;90.10
431;DHT22;202;48.764;9.172;2022-08-01T23:00:34;20.60;90.90
431;DHT22;202;48.764;9.172;2022-08-01T23:03:05;20.50;91.50
431;DHT22;202;48.764;9.172;2022-08-01T23:05:40;20.50;91.80
431;DHT22;202;48.764;9.172;2022-08-01T23:08:13;20.50;92.30
431;DHT22;202;48.764;9.172;2022-08-01T23:10:41;20.60;92.10
431;DHT22;202;48.764;9.172;2022-08-01T23:13:10;20.60;91.70
431;DHT22;202;48.764;9.172;2022-08-01T23:15:37;20.70;92.00
431;DHT22;202;48.764;9.172;2022-08-01T23:18:06;20.70;92.30
431;DHT22;202;48.764;9.172;2022-08-01T23:20:34;20.70;92.40
431;DHT22;202;48.764;9.172;2022-08-01T23:23:02;20.60;92.80
431;DHT22;202;48.764;9.172;2022-08-01T23:25:31;20.50;92.90
431;DHT22;202;48.764;9.172;2022-08-01T23:27:59;20.40;93.00
431;DHT22;202;48.764;9.172;2022-08-01T23:30:28;20.40;92.90
431;DHT22;202;48.764;9.172;2022-08-01T23:32:55;20.50;92.90
431;DHT22;202;48.764;9.172;2022-08-01T23:35:23;20.50;93.10
431;DHT22;202;48.764;9.172;2022-08-01T23:37:50;20.40;94.20
431;DHT22;202;48.764;9.172;2022-08-01T23:40:17;20.30;94.40
431;DHT22;202;48.764;9.172;2022-08-01T23:42:46;20.30;94.30
431;DHT22;202;48.764;9.172;2022-08-01T23:45:13;20.30;94.20
431;DHT22;202;48.764;9.172;2022-08-01T23:47:40;20.40;94.90
431;DHT22;202;48.764;9.172;2022-08-01T23:50:09;20.50;95.00
431;DHT22;202;48.764;9.172;2022-08-01T23:52:36;20.50;95.20
431;DHT22;202;48.764;9.172;2022-08-01T23:55:03;20.50;95.90
431;DHT22;202;48.764;9.172;2022-08-01T23:57:31;20.40;95.60
431;DHT22;202;48.764;9.172;2022-08-01T23:59:59;20.40;95.50
